createdAt,value
2018-04-25T00:01:52.503Z,7.20
2018-04-25T00:04:20.104Z,6.50
2018-04-25T00:06:47.694Z,7.30
2018-04-25T00:09:16.090Z,5.93
2018-04-25T00:11:44.365Z,6.20
2018-04-25T00:14:12.661Z,5.20
2018-04-25T00:16:40.973Z,6.00
2018-04-25T00:19:08.500Z,5.83
2018-04-25T00:21:36.148Z,5.80
2018-04-25T00:24:03.726Z,5.50
2018-04-25T00:26:31.251Z,5.53
2018-04-25T00:28:58.813Z,5.83
2018-04-25T00:31:26.389Z,5.00
2018-04-25T00:33:54.744Z,5.43
2018-04-25T00:36:22.301Z,5.73
2018-04-25T00:38:49.854Z,5.00
2018-04-25T00:41:17.404Z,5.87
2018-04-25T00:43:45.045Z,5.40
2018-04-25T00:46:12.610Z,5.70
2018-04-25T00:48:40.156Z,5.17
2018-04-25T00:51:07.771Z,5.47
2018-04-25T00:53:35.903Z,4.97
2018-04-25T00:56:03.483Z,4.93
2018-04-25T00:58:31.087Z,5.30
2018-04-25T01:00:58.617Z,4.83
2018-04-25T01:03:26.188Z,4.80
2018-04-25T01:05:53.728Z,5.83
2018-04-25T01:08:22.007Z,5.80
2018-04-25T01:10:49.654Z,5.47
2018-04-25T01:13:18.010Z,5.33
2018-04-25T01:15:45.560Z,5.47
2018-04-25T01:18:13.857Z,5.30
2018-04-25T01:20:41.557Z,5.13
2018-04-25T01:23:09.571Z,4.83
2018-04-25T01:25:38.793Z,5.20
2018-04-25T01:28:09.216Z,5.03
2018-04-25T01:33:42.637Z,4.77
2018-04-25T01:36:14.796Z,6.07
2018-04-25T01:38:46.156Z,4.80
2018-04-25T01:41:14.552Z,5.27
2018-04-25T01:43:46.024Z,5.20
2018-04-25T01:46:27.328Z,5.00
2018-04-25T01:49:02.343Z,6.33
2018-04-25T01:51:42.594Z,6.07
2018-04-25T01:54:22.002Z,6.17
2018-04-25T01:57:01.407Z,5.83
2018-04-25T01:59:41.538Z,6.07
2018-04-25T02:02:08.646Z,6.30
2018-04-25T02:04:36.909Z,7.10
2018-04-25T02:07:04.448Z,7.33
2018-04-25T02:09:31.982Z,6.67
2018-04-25T02:11:59.527Z,7.83
2018-04-25T02:14:27.028Z,7.43
2018-04-25T02:16:54.649Z,7.97
2018-04-25T02:19:22.184Z,7.60
2018-04-25T02:21:49.761Z,7.93
2018-04-25T02:24:17.262Z,9.27
2018-04-25T02:26:44.830Z,8.67
2018-04-25T02:29:12.325Z,8.30
2018-04-25T02:31:39.855Z,9.10
2018-04-25T02:34:07.392Z,9.03
2018-04-25T02:36:34.972Z,9.43
2018-04-25T02:39:02.515Z,8.90
2018-04-25T02:41:30.843Z,9.27
2018-04-25T02:43:58.386Z,9.43
2018-04-25T02:46:26.661Z,9.40
2018-04-25T02:48:54.309Z,8.57
2018-04-25T02:51:21.885Z,8.43
2018-04-25T02:53:49.409Z,8.67
2018-04-25T02:56:16.913Z,9.83
2018-04-25T02:58:44.424Z,8.53
2018-04-25T03:01:11.965Z,9.10
2018-04-25T03:03:39.521Z,8.40
2018-04-25T03:06:07.026Z,9.87
2018-04-25T03:08:34.593Z,9.87
2018-04-25T03:11:02.102Z,10.37
2018-04-25T03:13:30.443Z,9.90
2018-04-25T03:15:57.956Z,9.93
2018-04-25T03:18:26.367Z,11.07
2018-04-25T03:20:53.893Z,10.87
2018-04-25T03:23:21.424Z,10.07
2018-04-25T03:25:48.939Z,10.23
2018-04-25T03:28:16.483Z,10.83
2018-04-25T03:30:44.037Z,11.53
2018-04-25T03:33:11.724Z,10.00
2018-04-25T03:35:39.219Z,11.07
2018-04-25T03:38:06.936Z,10.80
2018-04-25T03:40:34.471Z,10.40
2018-04-25T03:43:02.057Z,11.03
2018-04-25T03:45:29.689Z,9.87
2018-04-25T03:47:57.333Z,11.03
2018-04-25T03:50:24.906Z,12.50
2018-04-25T03:52:52.412Z,12.27
2018-04-25T03:55:20.003Z,12.07
2018-04-25T03:57:47.540Z,11.73
2018-04-25T04:00:15.135Z,10.80
2018-04-25T04:02:42.671Z,10.80
2018-04-25T04:05:10.192Z,10.90
2018-04-25T04:07:37.718Z,9.93
2018-04-25T04:10:05.277Z,8.93
2018-04-25T04:12:33.174Z,8.83
2018-04-25T04:15:00.741Z,6.87
2018-04-25T04:17:28.241Z,7.90
2018-04-25T04:19:56.247Z,7.63
2018-04-25T04:22:23.785Z,7.60
2018-04-25T04:24:51.302Z,8.10
2018-04-25T04:27:21.123Z,8.47
2018-04-25T04:29:48.725Z,9.47
2018-04-25T04:32:16.435Z,7.03
2018-04-25T04:34:44.272Z,8.33
2018-04-25T04:37:12.580Z,6.70
2018-04-25T04:39:40.099Z,6.87
2018-04-25T04:42:07.710Z,6.33
2018-04-25T04:44:35.224Z,5.30
2018-04-25T04:47:03.644Z,5.47
2018-04-25T04:49:31.187Z,5.77
2018-04-25T04:51:58.672Z,6.00
2018-04-25T04:54:26.208Z,6.13
2018-04-25T04:56:53.908Z,5.90
2018-04-25T04:59:22.176Z,7.30
2018-04-25T05:01:50.017Z,7.33
2018-04-25T05:04:18.283Z,9.30
2018-04-25T05:06:46.052Z,9.53
2018-04-25T05:09:13.624Z,9.80
2018-04-25T05:11:41.154Z,8.80
2018-04-25T05:14:08.659Z,6.53
2018-04-25T05:16:36.182Z,8.03
2018-04-25T05:19:03.708Z,5.90
2018-04-25T05:21:31.433Z,5.70
2018-04-25T05:23:58.932Z,4.43
2018-04-25T05:26:26.478Z,4.70
2018-04-25T05:28:54.045Z,4.17
2018-04-25T05:31:21.636Z,4.20
2018-04-25T05:33:49.143Z,4.20
2018-04-25T05:36:16.660Z,5.17
2018-04-25T05:38:44.275Z,4.73
2018-04-25T05:41:12.045Z,5.43
2018-04-25T05:43:39.627Z,5.50
2018-04-25T05:46:07.228Z,6.43
2018-04-25T05:48:34.736Z,6.43
2018-04-25T05:51:02.283Z,5.63
2018-04-25T05:53:30.690Z,6.77
2018-04-25T05:55:58.197Z,7.20
2018-04-25T05:58:26.504Z,5.63
2018-04-25T06:00:53.992Z,5.57
2018-04-25T06:03:21.522Z,5.80
2018-04-25T06:05:49.030Z,6.57
2018-04-25T06:08:16.630Z,5.80
2018-04-25T06:10:45.669Z,6.30
2018-04-25T06:13:13.294Z,5.40
2018-04-25T06:15:40.794Z,6.07
2018-04-25T06:18:08.341Z,6.50
2018-04-25T06:20:36.596Z,6.60
2018-04-25T06:23:04.208Z,6.37
2018-04-25T06:25:31.893Z,7.10
2018-04-25T06:27:59.428Z,8.13
2018-04-25T06:30:26.928Z,8.07
2018-04-25T06:32:55.208Z,8.53
2018-04-25T06:35:22.718Z,10.47
2018-04-25T06:37:50.250Z,9.77
2018-04-25T06:40:18.603Z,8.27
2018-04-25T06:42:46.210Z,8.10
2018-04-25T06:45:13.747Z,9.10
2018-04-25T06:47:41.292Z,5.87
2018-04-25T06:50:08.804Z,5.07
2018-04-25T06:52:36.321Z,3.70
2018-04-25T06:55:03.886Z,3.40
2018-04-25T06:57:32.152Z,3.30
2018-04-25T06:59:59.709Z,3.10
2018-04-25T07:02:27.215Z,2.30
2018-04-25T07:04:55.536Z,3.03
2018-04-25T07:07:23.032Z,3.70
2018-04-25T07:09:50.655Z,3.20
2018-04-25T07:12:18.209Z,3.50
2018-04-25T07:14:46.489Z,3.83
2018-04-25T07:17:13.993Z,5.20
2018-04-25T07:19:41.511Z,3.90
2018-04-25T07:22:09.012Z,4.67
2018-04-25T07:24:37.337Z,3.30
2018-04-25T07:27:04.851Z,2.50
2018-04-25T07:29:32.401Z,2.50
2018-04-25T07:31:59.924Z,2.40
2018-04-25T07:34:28.296Z,2.60
2018-04-25T07:36:55.793Z,2.33
2018-04-25T07:39:24.076Z,2.70
2018-04-25T07:41:52.410Z,2.43
2018-04-25T07:44:19.890Z,3.10
2018-04-25T07:46:47.397Z,3.03
2018-04-25T07:49:15.683Z,2.83
2018-04-25T07:51:43.181Z,2.53
2018-04-25T07:54:10.694Z,1.90
2018-04-25T07:56:38.270Z,2.00
2018-04-25T07:59:05.832Z,2.23
2018-04-25T08:01:33.345Z,1.60
2018-04-25T08:04:01.656Z,1.47
2018-04-25T08:06:29.175Z,1.77
2018-04-25T08:08:56.712Z,2.20
2018-04-25T08:11:24.249Z,2.53
2018-04-25T08:14:04.539Z,2.60
2018-04-25T08:16:43.930Z,2.30
2018-04-25T08:19:23.368Z,2.90
2018-04-25T08:21:50.927Z,2.90
2018-04-25T08:24:18.445Z,3.20
2018-04-25T08:26:45.951Z,3.67
2018-04-25T08:29:14.224Z,3.40
2018-04-25T08:31:42.504Z,3.70
2018-04-25T08:34:10.052Z,3.70
2018-04-25T08:36:37.633Z,5.57
2018-04-25T08:39:06.103Z,4.47
2018-04-25T08:41:33.661Z,5.37
2018-04-25T08:44:01.151Z,5.60
2018-04-25T08:46:28.668Z,5.93
2018-04-25T08:48:56.984Z,5.73
2018-04-25T08:51:24.550Z,4.80
2018-04-25T08:53:52.048Z,5.30
2018-04-25T08:56:19.629Z,5.13
2018-04-25T08:58:47.143Z,5.93
2018-04-25T09:01:15.425Z,5.60
2018-04-25T09:03:42.936Z,5.53
2018-04-25T09:06:10.452Z,5.70
2018-04-25T09:08:37.981Z,6.90
2018-04-25T09:11:05.503Z,7.03
2018-04-25T09:13:33.077Z,6.27
2018-04-25T09:16:00.579Z,7.13
2018-04-25T09:18:28.098Z,6.73
2018-04-25T09:20:55.705Z,7.00
2018-04-25T09:23:23.999Z,5.93
2018-04-25T09:25:52.263Z,5.30
2018-04-25T09:28:19.800Z,5.40
2018-04-25T09:30:47.443Z,4.00
2018-04-25T09:33:16.000Z,4.20
2018-04-25T09:35:43.527Z,3.93
2018-04-25T09:38:11.044Z,3.53
2018-04-25T09:40:38.540Z,4.30
2018-04-25T09:43:06.849Z,4.80
2018-04-25T09:45:34.345Z,4.83
2018-04-25T09:48:01.864Z,4.70
2018-04-25T09:50:30.148Z,4.30
2018-04-25T09:52:57.671Z,4.37
2018-04-25T09:55:25.177Z,4.53
2018-04-25T09:57:52.875Z,4.63
2018-04-25T10:00:20.397Z,5.10
2018-04-25T10:02:53.732Z,4.40
2018-04-25T10:05:21.237Z,4.60
2018-04-25T10:07:49.529Z,4.97
2018-04-25T10:10:17.031Z,4.90
2018-04-25T10:12:44.547Z,4.60
2018-04-25T10:15:12.933Z,4.20
2018-04-25T10:17:40.419Z,5.03
2018-04-25T10:20:08.730Z,4.27
2018-04-25T10:22:36.256Z,5.23
2018-04-25T10:25:03.764Z,5.60
2018-04-25T10:27:31.340Z,6.07
2018-04-25T10:29:58.828Z,5.57
2018-04-25T10:32:26.376Z,5.50
2018-04-25T10:34:55.828Z,5.97
2018-04-25T10:37:23.376Z,5.63
2018-04-25T10:39:50.871Z,6.40
2018-04-25T10:42:18.369Z,7.10
2018-04-25T10:44:45.891Z,6.57
2018-04-25T10:47:13.388Z,6.57
2018-04-25T10:49:40.911Z,6.37
2018-04-25T10:52:09.177Z,5.87
2018-04-25T10:54:36.708Z,5.90
2018-04-25T10:57:04.209Z,6.40
2018-04-25T10:59:31.725Z,5.70
2018-04-25T11:01:59.287Z,6.40
2018-04-25T11:04:27.574Z,6.90
2018-04-25T11:06:55.075Z,6.40
2018-04-25T11:09:22.597Z,7.10
2018-04-25T11:11:50.205Z,6.80
2018-04-25T11:14:17.724Z,7.63
2018-04-25T11:16:45.262Z,6.80
2018-04-25T11:19:12.781Z,7.10
2018-04-25T11:21:40.391Z,7.40
2018-04-25T11:24:07.912Z,8.10
2018-04-25T11:26:35.494Z,9.00
2018-04-25T11:29:02.959Z,8.43
2018-04-25T11:31:30.455Z,8.17
2018-04-25T11:33:58.743Z,8.93
2018-04-25T11:36:28.971Z,8.67
2018-04-25T11:38:57.371Z,7.80
2018-04-25T11:41:25.683Z,7.60
2018-04-25T11:43:54.111Z,7.70
2018-04-25T11:46:21.623Z,7.83
2018-04-25T11:48:49.931Z,8.23
2018-04-25T11:51:17.496Z,7.57
2018-04-25T11:53:45.513Z,8.80
2018-04-25T11:56:13.014Z,9.60
2018-04-25T11:58:40.644Z,10.00
2018-04-25T12:01:08.149Z,7.73
2018-04-25T12:03:35.673Z,7.80
2018-04-25T12:06:03.182Z,8.27
2018-04-25T12:08:30.708Z,7.83
2018-04-25T12:10:58.219Z,8.83
2018-04-25T12:13:25.753Z,9.87
2018-04-25T12:15:53.511Z,9.73
2018-04-25T12:18:21.772Z,10.67
2018-04-25T12:20:49.984Z,10.10
2018-04-25T12:23:18.419Z,9.70
2018-04-25T12:25:45.989Z,8.10
2018-04-25T12:28:13.491Z,6.70
2018-04-25T12:30:41.004Z,5.90
2018-04-25T12:33:09.264Z,6.57
2018-04-25T12:35:36.796Z,6.63
2018-04-25T12:38:04.444Z,6.10
2018-04-25T12:40:31.979Z,5.43
2018-04-25T12:42:59.467Z,4.83
2018-04-25T12:45:27.783Z,4.47
2018-04-25T12:47:55.568Z,4.73
2018-04-25T12:50:23.223Z,5.50
2018-04-25T12:52:50.723Z,4.07
2018-04-25T12:55:18.236Z,4.77
2018-04-25T12:57:45.785Z,4.47
2018-04-25T13:00:13.301Z,5.00
2018-04-25T13:02:41.620Z,5.17
2018-04-25T13:05:09.136Z,5.73
2018-04-25T13:07:36.736Z,5.43
2018-04-25T13:10:05.085Z,6.37
2018-04-25T13:12:32.696Z,6.97
2018-04-25T13:15:00.995Z,6.77
2018-04-25T13:17:29.259Z,6.17
2018-04-25T13:19:56.845Z,4.70
2018-04-25T13:22:25.354Z,5.27
2018-04-25T13:24:52.983Z,5.53
2018-04-25T13:27:20.477Z,5.60
2018-04-25T13:29:48.283Z,4.90
2018-04-25T13:32:16.101Z,5.37
2018-04-25T13:34:43.636Z,4.97
2018-04-25T13:37:11.201Z,5.00
2018-04-25T13:39:39.647Z,5.50
2018-04-25T13:42:07.176Z,4.90
2018-04-25T13:44:34.734Z,6.40
2018-04-25T13:47:02.296Z,5.43
2018-04-25T13:49:30.586Z,6.00
2018-04-25T13:51:58.923Z,5.93
2018-04-25T13:54:26.717Z,5.40
2018-04-25T13:56:54.298Z,4.73
2018-04-25T13:59:22.868Z,5.97
2018-04-25T14:01:50.464Z,5.67
2018-04-25T14:04:18.044Z,5.80
2018-04-25T14:06:46.354Z,6.07
2018-04-25T14:09:14.624Z,5.17
2018-04-25T14:11:42.293Z,5.80
2018-04-25T14:14:09.792Z,5.53
2018-04-25T14:16:48.428Z,6.53
2018-04-25T14:19:16.387Z,5.60
2018-04-25T14:21:44.096Z,4.60
2018-04-25T14:24:11.757Z,5.90
2018-04-25T14:26:40.135Z,5.30
2018-04-25T14:29:08.430Z,5.60
2018-04-25T14:31:36.740Z,6.10
2018-04-25T14:34:04.279Z,7.20
2018-04-25T14:36:35.126Z,5.30
2018-04-25T14:39:02.751Z,5.97
2018-04-25T14:41:30.348Z,5.80
2018-04-25T14:43:57.860Z,5.90
2018-04-25T14:46:26.148Z,6.17
2018-04-25T14:48:54.631Z,5.53
2018-04-25T14:51:22.246Z,5.63
2018-04-25T14:53:50.711Z,6.40
2018-04-25T14:56:19.117Z,6.40
2018-04-25T14:58:46.998Z,6.97
2018-04-25T15:01:14.878Z,6.17
2018-04-25T15:03:42.417Z,6.97
2018-04-25T15:06:10.018Z,6.53
2018-04-25T15:08:37.694Z,7.43
2018-04-25T15:11:05.278Z,6.60
2018-04-25T15:13:32.786Z,7.33
2018-04-25T15:16:00.416Z,7.00
2018-04-25T15:18:29.313Z,7.33
2018-04-25T15:20:57.708Z,6.63
2018-04-25T15:23:25.310Z,6.10
2018-04-25T15:25:53.197Z,6.47
2018-04-25T15:28:20.892Z,5.90
2018-04-25T15:30:48.528Z,5.07
2018-04-25T15:33:16.451Z,5.10
2018-04-25T15:35:45.131Z,4.93
2018-04-25T15:38:15.426Z,5.10
2018-04-25T15:40:43.409Z,4.30
2018-04-25T15:43:11.850Z,3.90
2018-04-25T15:45:44.991Z,4.23
2018-04-25T15:48:14.417Z,4.80
2018-04-25T15:50:41.997Z,3.70
2018-04-25T15:53:10.197Z,4.77
2018-04-25T15:55:40.001Z,3.70
2018-04-25T15:58:08.811Z,3.50
2018-04-25T16:00:36.308Z,3.40
2018-04-25T16:03:04.145Z,4.20
2018-04-25T16:05:32.440Z,4.27
2018-04-25T16:08:01.175Z,5.70
2018-04-25T16:10:30.829Z,5.07
2018-04-25T16:12:59.298Z,7.33
2018-04-25T16:15:27.053Z,5.73
2018-04-25T16:17:55.749Z,6.43
2018-04-25T16:20:23.331Z,6.80
2018-04-25T16:22:51.765Z,6.87
2018-04-25T16:25:22.575Z,7.70
2018-04-25T16:27:50.424Z,6.90
2018-04-25T16:30:18.071Z,6.93
2018-04-25T16:32:47.893Z,7.90
2018-04-25T16:35:15.452Z,7.57
2018-04-25T16:37:42.960Z,7.80
2018-04-25T16:40:10.516Z,6.30
2018-04-25T16:42:38.145Z,8.30
2018-04-25T16:45:05.981Z,8.70
2018-04-25T16:47:34.277Z,7.73
2018-04-25T16:50:02.580Z,9.33
2018-04-25T16:52:30.200Z,8.30
2018-04-25T16:54:57.816Z,8.40
2018-04-25T16:57:25.397Z,8.33
2018-04-25T16:59:53.404Z,8.30
2018-04-25T17:02:21.027Z,8.57
2018-04-25T17:04:48.583Z,9.13
2018-04-25T17:07:16.291Z,8.63
2018-04-25T17:09:44.154Z,8.63
2018-04-25T17:12:11.787Z,8.57
2018-04-25T17:14:39.323Z,8.60
2018-04-25T17:17:07.024Z,8.33
2018-04-25T17:19:34.540Z,8.40
2018-04-25T17:22:02.128Z,8.80
2018-04-25T17:24:30.444Z,8.13
2018-04-25T17:26:58.059Z,8.73
2018-04-25T17:29:26.496Z,8.97
2018-04-25T17:31:54.018Z,7.80
2018-04-25T17:34:22.252Z,8.53
2018-04-25T17:39:39.195Z,9.67
2018-04-25T17:42:08.521Z,9.23
2018-04-25T17:50:07.697Z,9.10
2018-04-25T17:52:37.525Z,8.77
2018-04-25T17:55:16.880Z,8.63
2018-04-25T17:58:13.017Z,8.40
2018-04-25T18:01:04.042Z,8.20
2018-04-25T18:03:43.493Z,8.83
2018-04-25T18:09:30.239Z,8.87
2018-04-25T18:26:04.461Z,9.40
2018-04-25T18:28:33.315Z,9.30
2018-04-25T18:31:00.870Z,9.93
2018-04-25T18:33:28.689Z,9.53
2018-04-25T18:41:53.813Z,11.10
2018-04-25T18:44:24.637Z,10.90
2018-04-25T18:46:53.131Z,10.10
2018-04-25T18:52:14.248Z,9.50
2018-04-25T19:01:41.651Z,12.40
2018-04-25T19:04:09.206Z,12.73
2018-04-25T19:06:37.530Z,13.00
2018-04-25T19:09:05.076Z,10.50
2018-04-25T19:11:32.631Z,11.20
2018-04-25T19:14:00.990Z,11.73
2018-04-25T19:16:28.509Z,11.80
2018-04-25T19:18:56.102Z,11.77
2018-04-25T19:21:23.691Z,12.00
2018-04-25T19:23:51.246Z,12.70
2018-04-25T19:26:18.781Z,12.07
2018-04-25T19:28:46.337Z,12.33
2018-04-25T19:31:13.912Z,11.43
2018-04-25T19:33:41.517Z,13.23
2018-04-25T19:36:09.852Z,12.40
2018-04-25T19:38:37.419Z,10.70
2018-04-25T19:41:04.994Z,11.50
2018-04-25T19:43:32.570Z,11.17
2018-04-25T19:46:00.105Z,9.83
2018-04-25T19:48:28.061Z,11.43
2018-04-25T19:50:56.456Z,12.90
2018-04-25T19:53:24.851Z,11.50
2018-04-25T19:55:52.475Z,9.80
2018-04-25T19:58:20.143Z,10.87
2018-04-25T20:00:47.707Z,9.57
2018-04-25T20:03:15.314Z,8.13
2018-04-25T20:05:42.940Z,8.63
2018-04-25T20:08:10.824Z,8.70
2018-04-25T20:10:38.399Z,9.60
2018-04-25T20:13:05.995Z,8.73
2018-04-25T20:15:33.652Z,10.10
2018-04-25T20:18:01.246Z,9.13
2018-04-25T20:20:28.783Z,10.10
2018-04-25T20:22:56.347Z,9.30
2018-04-25T20:25:23.894Z,8.80
2018-04-25T20:27:51.436Z,8.97
2018-04-25T20:30:19.050Z,8.50
2018-04-25T20:32:46.639Z,8.80
2018-04-25T20:35:14.194Z,8.10
2018-04-25T20:37:42.529Z,8.93
2018-04-25T20:40:10.065Z,9.37
2018-04-25T20:42:38.381Z,8.83
2018-04-25T20:45:05.916Z,8.90
2018-04-25T20:47:34.257Z,8.10
2018-04-25T20:50:01.828Z,7.47
2018-04-25T20:52:30.343Z,7.23
2018-04-25T20:54:58.057Z,7.57
2018-04-25T20:57:26.393Z,6.33
2018-04-25T20:59:54.031Z,6.53
2018-04-25T21:02:21.680Z,6.07
2018-04-25T21:04:49.894Z,5.13
2018-04-25T21:07:17.510Z,4.50
2018-04-25T21:09:45.066Z,4.13
2018-04-25T21:12:12.624Z,3.90
2018-04-25T21:14:40.159Z,4.17
2018-04-25T21:17:08.435Z,3.13
2018-04-25T21:19:36.020Z,3.60
2018-04-25T21:22:04.306Z,3.40
2018-04-25T21:24:31.860Z,3.60
2018-04-25T21:26:59.616Z,3.27
2018-04-25T21:29:27.171Z,2.30
2018-04-25T21:31:54.684Z,2.27
2018-04-25T21:34:22.206Z,2.33
2018-04-25T21:36:49.797Z,3.00
2018-04-25T21:39:17.372Z,1.90
2018-04-25T21:41:44.888Z,2.10
2018-04-25T21:44:12.423Z,1.97
2018-04-25T21:46:40.427Z,2.23
2018-04-25T21:49:08.037Z,2.10
2018-04-25T21:51:35.608Z,2.20
2018-04-25T21:54:03.929Z,3.10
2018-04-25T21:56:31.699Z,2.20
2018-04-25T21:58:59.340Z,2.40
2018-04-25T22:01:27.672Z,3.00
2018-04-25T22:03:55.208Z,2.50
2018-04-25T22:06:23.505Z,2.40
2018-04-25T22:08:51.077Z,2.60
2018-04-25T22:11:18.910Z,2.70
2018-04-25T22:13:46.526Z,1.93
2018-04-25T22:16:14.083Z,2.80
2018-04-25T22:18:42.519Z,2.20
2018-04-25T22:21:10.152Z,2.30
2018-04-25T22:23:38.706Z,2.27
2018-04-25T22:26:07.025Z,2.60
2018-04-25T22:28:36.337Z,3.10
2018-04-25T22:31:03.932Z,2.73
2018-04-25T22:33:32.292Z,2.57
2018-04-25T22:36:00.042Z,1.97
2018-04-25T22:38:27.578Z,2.47
2018-04-25T22:40:55.150Z,2.00
2018-04-25T22:43:22.642Z,2.80
2018-04-25T22:45:50.183Z,2.20
2018-04-25T22:48:17.675Z,1.90
2018-04-25T22:50:45.252Z,2.50
2018-04-25T22:53:13.067Z,2.30
2018-04-25T22:55:40.942Z,2.67
2018-04-25T22:58:08.497Z,2.60
2018-04-25T23:00:36.042Z,2.67
2018-04-25T23:03:03.545Z,2.80
2018-04-25T23:05:31.067Z,3.30
2018-04-25T23:07:59.435Z,2.77
2018-04-25T23:10:27.694Z,3.00
2018-04-25T23:12:55.574Z,2.33
2018-04-25T23:15:23.146Z,3.07
2018-04-25T23:17:50.683Z,2.40
2018-04-25T23:20:19.096Z,3.20
2018-04-25T23:22:46.667Z,2.30
2018-04-25T23:25:14.203Z,2.77
2018-04-25T23:27:42.558Z,3.27
2018-04-25T23:30:10.213Z,2.67
2018-04-25T23:32:37.849Z,2.37
2018-04-25T23:35:06.225Z,2.00
2018-04-25T23:37:33.766Z,2.40
2018-04-25T23:40:01.386Z,2.10
2018-04-25T23:42:28.930Z,2.50
2018-04-25T23:44:56.488Z,2.60
2018-04-25T23:47:24.041Z,2.60
2018-04-25T23:49:51.637Z,2.80
2018-04-25T23:52:19.829Z,1.93
2018-04-25T23:54:47.392Z,2.10
2018-04-25T23:57:14.904Z,2.30
2018-04-25T23:59:42.452Z,2.03
